Time,TemperatureF,DewpointF,PressureIn,WindDirection,WindDirectionDegrees,WindSpeedMPH,WindSpeedGustMPH,Humidity,HourlyPrecipIn,Conditions,Clouds,dailyrainin,SoftwareType,DateUTC
2013-03-08 00:02:00,35.1,27.0,30.38,NW,314,1.0,35.0,72,0.00,,,0.00,Wunderground v.1.15,2013-03-08 07:02:00,
2013-03-08 00:08:00,35.0,26.9,30.38,NW,306,2.0,35.0,72,0.00,,,0.00,Wunderground v.1.15,2013-03-08 07:08:00,
2013-03-08 00:14:00,34.9,26.8,30.38,NW,305,1.0,35.0,72,0.00,,,0.00,Wunderground v.1.15,2013-03-08 07:14:00,
2013-03-08 00:20:00,34.7,26.6,30.39,WSW,243,1.0,35.0,72,0.00,,,0.00,Wunderground v.1.15,2013-03-08 07:20:00,
2013-03-08 00:26:00,34.4,26.6,30.39,WSW,244,3.0,35.0,73,0.00,,,0.00,Wunderground v.1.15,2013-03-08 07:26:00,
2013-03-08 00:32:00,34.2,26.4,30.39,WSW,248,2.0,35.0,73,0.00,,,0.00,Wunderground v.1.15,2013-03-08 07:32:00,
2013-03-08 00:38:00,34.1,26.3,30.38,West,274,1.0,35.0,73,0.00,,,0.00,Wunderground v.1.15,2013-03-08 07:38:00,
2013-03-08 00:44:00,33.9,26.5,30.38,West,274,1.0,35.0,74,0.00,,,0.00,Wunderground v.1.15,2013-03-08 07:44:00,
2013-03-08 00:50:00,33.9,26.5,30.38,West,274,1.0,35.0,74,0.00,,,0.00,Wunderground v.1.15,2013-03-08 07:50:00,
2013-03-08 00:56:00,33.9,26.5,30.38,West,274,1.0,35.0,74,0.00,,,0.00,Wunderground v.1.15,2013-03-08 07:56:00,
2013-03-08 01:02:00,33.7,26.3,30.37,WNW,288,1.0,35.0,74,0.00,,,0.00,Wunderground v.1.15,2013-03-08 08:02:00,
2013-03-08 01:08:00,33.6,26.5,30.38,WNW,288,1.0,35.0,75,0.00,,,0.00,Wunderground v.1.15,2013-03-08 08:08:00,
2013-03-08 01:14:00,33.5,26.4,30.36,NW,315,1.0,35.0,75,0.00,,,0.00,Wunderground v.1.15,2013-03-08 08:14:00,
2013-03-08 01:20:00,33.4,26.3,30.36,NW,326,3.0,35.0,75,0.00,,,0.00,Wunderground v.1.15,2013-03-08 08:20:00,
2013-03-08 01:26:00,33.3,26.2,30.37,NNW,332,2.0,35.0,75,0.00,,,0.00,Wunderground v.1.15,2013-03-08 08:26:00,
2013-03-08 01:32:00,33.3,26.2,30.36,WNW,296,1.0,35.0,75,0.00,,,0.00,Wunderground v.1.15,2013-03-08 08:32:00,
2013-03-08 01:38:00,33.0,26.3,30.35,WNW,295,0.0,35.0,76,0.00,,,0.00,Wunderground v.1.15,2013-03-08 08:38:00,
2013-03-08 01:44:00,32.9,26.2,30.35,WNW,296,0.0,35.0,76,0.00,,,0.00,Wunderground v.1.15,2013-03-08 08:44:00,
2013-03-08 01:50:00,32.8,26.4,30.35,WNW,295,0.0,35.0,77,0.00,,,0.00,Wunderground v.1.15,2013-03-08 08:50:00,
2013-03-08 01:56:00,32.7,26.0,30.35,WNW,295,0.0,35.0,76,0.00,,,0.00,Wunderground v.1.15,2013-03-08 08:56:00,
2013-03-08 02:02:00,32.7,26.6,30.35,WNW,295,1.0,35.0,78,0.00,,,0.00,Wunderground v.1.15,2013-03-08 09:02:00,
2013-03-08 02:08:00,32.7,26.0,30.35,WNW,295,1.0,35.0,76,0.00,,,0.00,Wunderground v.1.15,2013-03-08 09:08:00,
2013-03-08 02:14:00,32.5,26.1,30.34,WNW,295,0.0,35.0,77,0.00,,,0.00,Wunderground v.1.15,2013-03-08 09:14:00,
2013-03-08 02:20:00,32.0,25.6,30.35,WNW,295,0.0,35.0,77,0.00,,,0.00,Wunderground v.1.15,2013-03-08 09:20:00,
2013-03-08 02:26:00,31.9,26.1,30.35,WNW,295,0.0,35.0,79,0.00,,,0.00,Wunderground v.1.15,2013-03-08 09:26:00,
2013-03-08 02:32:00,32.1,26.6,30.35,WNW,295,0.0,35.0,80,0.00,,,0.00,Wunderground v.1.15,2013-03-08 09:32:00,
2013-03-08 02:38:00,32.5,26.7,30.35,WNW,295,0.0,35.0,79,0.00,,,0.00,Wunderground v.1.15,2013-03-08 09:38:00,
2013-03-08 02:44:00,32.3,26.2,30.35,WNW,295,1.0,35.0,78,0.00,,,0.00,Wunderground v.1.15,2013-03-08 09:44:00,
2013-03-08 02:50:00,32.0,26.2,30.34,WNW,295,1.0,35.0,79,0.00,,,0.00,Wunderground v.1.15,2013-03-08 09:50:00,
2013-03-08 02:56:00,31.7,25.9,30.34,WNW,295,1.0,35.0,79,0.00,,,0.00,Wunderground v.1.15,2013-03-08 09:56:00,
2013-03-08 03:02:00,31.8,26.6,30.34,WSW,246,2.0,35.0,81,0.00,,,0.00,Wunderground v.1.15,2013-03-08 10:02:00,
2013-03-08 03:08:00,32.4,27.2,30.34,SSE,156,3.0,35.0,81,0.00,,,0.00,Wunderground v.1.15,2013-03-08 10:08:00,
2013-03-08 03:14:00,32.7,26.6,30.34,SSE,153,3.0,35.0,78,0.00,,,0.00,Wunderground v.1.15,2013-03-08 10:14:00,
2013-03-08 03:20:00,32.7,26.6,30.34,SSE,148,3.0,35.0,78,0.00,,,0.00,Wunderground v.1.15,2013-03-08 10:20:00,
2013-03-08 03:26:00,32.1,25.4,30.34,SSE,158,3.0,35.0,76,0.00,,,0.00,Wunderground v.1.15,2013-03-08 10:26:00,
2013-03-08 03:32:00,31.9,25.5,30.34,SSE,160,4.0,35.0,77,0.00,,,0.00,Wunderground v.1.15,2013-03-08 10:32:00,
2013-03-08 03:38:00,31.6,25.5,30.34,SSE,156,3.0,35.0,78,0.00,,,0.00,Wunderground v.1.15,2013-03-08 10:38:00,
2013-03-08 03:44:00,31.4,25.3,30.33,SSE,155,3.0,35.0,78,0.00,,,0.00,Wunderground v.1.15,2013-03-08 10:44:00,
2013-03-08 03:50:00,30.7,24.7,30.33,SSE,154,4.0,35.0,78,0.00,,,0.00,Wunderground v.1.15,2013-03-08 10:50:00,
2013-03-08 03:56:00,29.9,24.5,30.33,SSE,149,3.0,35.0,80,0.00,,,0.00,Wunderground v.1.15,2013-03-08 10:56:00,
2013-03-08 04:02:00,30.0,24.6,30.33,SSE,156,3.0,35.0,80,0.00,,,0.00,Wunderground v.1.15,2013-03-08 11:02:00,
2013-03-08 04:08:00,29.8,24.4,30.34,SE,145,3.0,35.0,80,0.00,,,0.00,Wunderground v.1.15,2013-03-08 11:08:00,
2013-03-08 04:14:00,29.4,24.0,30.34,SSE,149,4.0,35.0,80,0.00,,,0.00,Wunderground v.1.15,2013-03-08 11:14:00,
2013-03-08 04:20:00,29.4,24.6,30.33,SSE,148,2.0,2.0,82,0.00,,,0.00,Wunderground v.1.15,2013-03-08 11:20:00,
2013-03-08 04:26:00,29.4,24.3,30.34,SSE,147,1.0,35.0,81,0.00,,,0.00,Wunderground v.1.15,2013-03-08 11:26:00,
2013-03-08 04:32:00,29.7,24.9,30.33,SE,135,1.0,35.0,82,0.00,,,0.00,Wunderground v.1.15,2013-03-08 11:32:00,
2013-03-08 04:38:00,29.7,24.6,30.33,ESE,106,2.0,35.0,81,0.00,,,0.00,Wunderground v.1.15,2013-03-08 11:38:00,
2013-03-08 04:44:00,30.0,25.2,30.33,ESE,102,2.0,35.0,82,0.00,,,0.00,Wunderground v.1.15,2013-03-08 11:44:00,
2013-03-08 04:50:00,30.4,25.3,30.33,East,95,2.0,2.0,81,0.00,,,0.00,Wunderground v.1.15,2013-03-08 11:50:00,
2013-03-08 04:56:00,30.8,25.4,30.34,SE,129,2.0,35.0,80,0.00,,,0.00,Wunderground v.1.15,2013-03-08 11:56:00,
2013-03-08 05:02:00,31.4,25.6,30.33,SE,135,3.0,35.0,79,0.00,,,0.00,Wunderground v.1.15,2013-03-08 12:02:00,
2013-03-08 05:08:00,30.6,24.6,30.33,SSE,150,3.0,35.0,78,0.00,,,0.00,Wunderground v.1.15,2013-03-08 12:08:00,
2013-03-08 05:14:00,29.5,23.8,30.33,SSE,153,2.0,35.0,79,0.00,,,0.00,Wunderground v.1.15,2013-03-08 12:14:00,
2013-03-08 05:20:00,29.0,24.2,30.33,SSE,154,2.0,2.0,82,0.00,,,0.00,Wunderground v.1.15,2013-03-08 12:20:00,
2013-03-08 05:26:00,28.7,23.6,30.33,SSE,154,1.0,35.0,81,0.00,,,0.00,Wunderground v.1.15,2013-03-08 12:26:00,
2013-03-08 05:32:00,28.1,23.0,30.33,SSE,154,0.0,35.0,81,0.00,,,0.00,Wunderground v.1.15,2013-03-08 12:32:00,
2013-03-08 05:38:00,27.6,22.8,30.33,SSE,154,0.0,35.0,82,0.00,,,0.00,Wunderground v.1.15,2013-03-08 12:38:00,
2013-03-08 05:44:00,27.5,23.3,30.33,SSE,154,0.0,35.0,84,0.00,,,0.00,Wunderground v.1.15,2013-03-08 12:44:00,
2013-03-08 05:50:00,27.4,23.2,30.33,SSE,154,0.0,35.0,84,0.00,,,0.00,Wunderground v.1.15,2013-03-08 12:50:00,
2013-03-08 05:56:00,27.8,24.2,30.33,SSE,154,0.0,35.0,86,0.00,,,0.00,Wunderground v.1.15,2013-03-08 12:56:00,
2013-03-08 06:02:00,28.3,24.4,30.34,SSE,154,0.0,35.0,85,0.00,,,0.00,Wunderground v.1.15,2013-03-08 13:02:00,
2013-03-08 06:08:00,28.7,24.5,30.34,SSE,152,0.0,35.0,84,0.00,,,0.00,Wunderground v.1.15,2013-03-08 13:08:00,
2013-03-08 06:14:00,29.0,24.5,30.34,SSE,152,1.0,35.0,83,0.00,,,0.00,Wunderground v.1.15,2013-03-08 13:14:00,
2013-03-08 06:20:00,28.5,23.7,30.34,SSE,152,0.0,35.0,82,0.00,,,0.00,Wunderground v.1.15,2013-03-08 13:20:00,
2013-03-08 06:26:00,27.8,23.3,30.35,SSE,149,1.0,35.0,83,0.00,,,0.00,Wunderground v.1.15,2013-03-08 13:26:00,
2013-03-08 06:32:00,27.3,23.1,30.34,SSE,149,1.0,35.0,84,0.00,,,0.00,Wunderground v.1.15,2013-03-08 13:32:00,
2013-03-08 06:38:00,27.0,22.8,30.35,SSE,149,1.0,35.0,84,0.00,,,0.00,Wunderground v.1.15,2013-03-08 13:38:00,
2013-03-08 06:44:00,26.7,22.8,30.34,SSE,148,1.0,35.0,85,0.00,,,0.00,Wunderground v.1.15,2013-03-08 13:44:00,
2013-03-08 06:50:00,26.7,23.1,30.35,SSE,147,1.0,1.0,86,0.00,,,0.00,Wunderground v.1.15,2013-03-08 13:50:00,
2013-03-08 06:56:00,26.8,23.2,30.35,SSE,148,0.0,35.0,86,0.00,,,0.00,Wunderground v.1.15,2013-03-08 13:56:00,
2013-03-08 07:02:00,27.2,23.8,30.35,SSE,147,0.0,35.0,87,0.00,,,0.00,Wunderground v.1.15,2013-03-08 14:02:00,
2013-03-08 07:08:00,27.6,24.0,30.35,SSE,148,1.0,35.0,86,0.00,,,0.00,Wunderground v.1.15,2013-03-08 14:08:00,
2013-03-08 07:14:00,28.0,24.6,30.35,SSE,147,1.0,35.0,87,0.00,,,0.00,Wunderground v.1.15,2013-03-08 14:14:00,
2013-03-08 07:20:00,28.6,25.2,30.34,SSE,147,1.0,1.0,87,0.00,,,0.00,Wunderground v.1.15,2013-03-08 14:20:00,
2013-03-08 07:26:00,29.2,25.5,30.34,SSE,147,0.0,35.0,86,0.00,,,0.00,Wunderground v.1.15,2013-03-08 14:26:00,
2013-03-08 07:32:00,30.0,26.3,30.34,SE,145,1.0,35.0,86,0.00,,,0.00,Wunderground v.1.15,2013-03-08 14:32:00,
2013-03-08 07:38:00,30.9,26.6,30.35,SE,144,2.0,35.0,84,0.00,,,0.00,Wunderground v.1.15,2013-03-08 14:38:00,
2013-03-08 07:44:00,31.5,26.9,30.35,SE,145,1.0,35.0,83,0.00,,,0.00,Wunderground v.1.15,2013-03-08 14:44:00,
2013-03-08 07:50:00,31.9,26.7,30.35,SSE,164,2.0,35.0,81,0.00,,,0.00,Wunderground v.1.15,2013-03-08 14:50:00,
2013-03-08 07:56:00,32.1,26.6,30.35,SSE,160,3.0,35.0,80,0.00,,,0.00,Wunderground v.1.15,2013-03-08 14:56:00,
2013-03-08 08:02:00,32.1,26.6,30.35,South,174,4.0,35.0,80,0.00,,,0.00,Wunderground v.1.15,2013-03-08 15:02:00,
2013-03-08 08:08:00,32.2,26.7,30.35,SSE,168,5.0,35.0,80,0.00,,,0.00,Wunderground v.1.15,2013-03-08 15:08:00,
2013-03-08 08:14:00,32.3,26.8,30.35,SSE,168,5.0,35.0,80,0.00,,,0.00,Wunderground v.1.15,2013-03-08 15:14:00,
2013-03-08 08:20:00,32.6,27.1,30.35,South,171,5.0,35.0,80,0.00,,,0.00,Wunderground v.1.15,2013-03-08 15:20:00,
2013-03-08 08:26:00,32.9,27.1,30.35,South,172,5.0,35.0,79,0.00,,,0.00,Wunderground v.1.15,2013-03-08 15:26:00,
2013-03-08 08:32:00,33.4,27.3,30.35,SE,142,6.0,35.0,78,0.00,,,0.00,Wunderground v.1.15,2013-03-08 15:32:00,
2013-03-08 08:38:00,33.8,27.4,30.35,SSE,167,6.0,35.0,77,0.00,,,0.00,Wunderground v.1.15,2013-03-08 15:38:00,
2013-03-08 08:44:00,34.2,27.4,30.34,SSE,166,6.0,35.0,76,0.00,,,0.00,Wunderground v.1.15,2013-03-08 15:44:00,
2013-03-08 08:50:00,34.6,27.5,30.34,SSE,166,5.0,35.0,75,0.00,,,0.00,Wunderground v.1.15,2013-03-08 15:50:00,
2013-03-08 08:56:00,35.0,27.5,30.33,SE,129,5.0,35.0,74,0.00,,,0.00,Wunderground v.1.15,2013-03-08 15:56:00,
2013-03-08 09:02:00,35.4,27.6,30.34,SSE,165,5.0,35.0,73,0.00,,,0.00,Wunderground v.1.15,2013-03-08 16:02:00,
2013-03-08 09:08:00,35.7,27.6,30.34,SE,145,5.0,35.0,72,0.00,,,0.00,Wunderground v.1.15,2013-03-08 16:08:00,
2013-03-08 09:14:00,36.2,27.7,30.34,SSE,164,5.0,35.0,71,0.00,,,0.00,Wunderground v.1.15,2013-03-08 16:14:00,
2013-03-08 09:20:00,36.2,27.7,30.34,SSE,164,5.0,5.0,71,0.00,,,0.00,Wunderground v.1.15,2013-03-08 16:20:00,
2013-03-08 09:26:00,36.3,27.4,30.34,SSE,164,5.0,35.0,70,0.00,,,0.00,Wunderground v.1.15,2013-03-08 16:26:00,
2013-03-08 09:32:00,36.7,28.2,30.33,South,180,4.0,35.0,71,0.00,,,0.00,Wunderground v.1.15,2013-03-08 16:32:00,
2013-03-08 09:38:00,37.1,28.2,30.33,SSE,155,3.0,35.0,70,0.00,,,0.00,Wunderground v.1.15,2013-03-08 16:38:00,
2013-03-08 09:44:00,37.3,28.1,30.33,SSE,152,4.0,35.0,69,0.00,,,0.00,Wunderground v.1.15,2013-03-08 16:44:00,
2013-03-08 09:50:00,37.5,28.2,30.33,SSE,157,4.0,4.0,69,0.00,,,0.00,Wunderground v.1.15,2013-03-08 16:50:00,
2013-03-08 09:56:00,37.8,28.2,30.33,SE,131,4.0,35.0,68,0.00,,,0.00,Wunderground v.1.15,2013-03-08 16:56:00,
2013-03-08 10:02:00,37.5,28.2,30.33,SE,130,6.0,35.0,69,0.00,,,0.00,Wunderground v.1.15,2013-03-08 17:02:00,
2013-03-08 10:08:00,37.6,28.3,30.32,ESE,111,6.0,35.0,69,0.00,,,0.00,Wunderground v.1.15,2013-03-08 17:08:00,
2013-03-08 10:14:00,37.9,29.0,30.32,SSE,168,6.0,35.0,70,0.00,,,0.00,Wunderground v.1.15,2013-03-08 17:14:00,
2013-03-08 10:20:00,38.2,28.6,30.31,SE,134,5.0,35.0,68,0.00,,,0.00,Wunderground v.1.15,2013-03-08 17:20:00,
2013-03-08 10:26:00,38.0,28.7,30.31,SE,133,5.0,35.0,69,0.00,,,0.00,Wunderground v.1.15,2013-03-08 17:26:00,
2013-03-08 10:32:00,38.2,28.6,30.31,SE,135,5.0,35.0,68,0.00,,,0.00,Wunderground v.1.15,2013-03-08 17:32:00,
2013-03-08 10:38:00,38.2,28.6,30.30,ESE,122,5.0,35.0,68,0.00,,,0.00,Wunderground v.1.15,2013-03-08 17:38:00,
2013-03-08 10:44:00,38.4,28.8,30.29,SE,139,5.0,35.0,68,0.00,,,0.00,Wunderground v.1.15,2013-03-08 17:44:00,
2013-03-08 10:50:00,38.2,28.6,30.29,ESE,122,5.0,5.0,68,0.00,,,0.00,Wunderground v.1.15,2013-03-08 17:50:00,
2013-03-08 10:56:00,38.4,28.8,30.29,SE,133,5.0,35.0,68,0.00,,,0.00,Wunderground v.1.15,2013-03-08 17:56:00,
2013-03-08 11:02:00,38.6,28.9,30.29,ESE,112,4.0,35.0,68,0.00,,,0.00,Wunderground v.1.15,2013-03-08 18:02:00,
2013-03-08 11:08:00,38.6,28.9,30.29,ESE,116,4.0,35.0,68,0.00,,,0.00,Wunderground v.1.15,2013-03-08 18:08:00,
2013-03-08 11:14:00,38.6,28.9,30.29,SE,133,4.0,35.0,68,0.00,,,0.00,Wunderground v.1.15,2013-03-08 18:14:00,
2013-03-08 11:20:00,38.7,29.0,30.29,SE,124,4.0,4.0,68,0.00,,,0.00,Wunderground v.1.15,2013-03-08 18:20:00,
2013-03-08 11:26:00,38.7,28.7,30.29,SE,131,5.0,35.0,67,0.00,,,0.00,Wunderground v.1.15,2013-03-08 18:26:00,
2013-03-08 11:32:00,38.8,28.8,30.28,SE,133,6.0,35.0,67,0.00,,,0.00,Wunderground v.1.15,2013-03-08 18:32:00,
2013-03-08 11:38:00,39.1,29.1,30.28,SE,126,5.0,35.0,67,0.00,,,0.00,Wunderground v.1.15,2013-03-08 18:38:00,
2013-03-08 11:44:00,38.9,28.5,30.28,SE,129,5.0,35.0,66,0.00,,,0.00,Wunderground v.1.15,2013-03-08 18:44:00,
2013-03-08 11:50:00,38.9,28.5,30.27,SE,126,5.0,5.0,66,0.00,,,0.00,Wunderground v.1.15,2013-03-08 18:50:00,
2013-03-08 11:56:00,38.7,28.3,30.27,ESE,104,6.0,35.0,66,0.00,,,0.00,Wunderground v.1.15,2013-03-08 18:56:00,
2013-03-08 12:02:00,38.7,28.3,30.26,ENE,73,7.0,35.0,66,0.00,,,0.00,Wunderground v.1.15,2013-03-08 19:02:00,
2013-03-08 12:08:00,38.8,28.4,30.26,East,91,8.0,35.0,66,0.00,,,0.00,Wunderground v.1.15,2013-03-08 19:08:00,
2013-03-08 12:14:00,38.3,27.9,30.26,ESE,104,7.0,35.0,66,0.00,,,0.00,Wunderground v.1.15,2013-03-08 19:14:00,
2013-03-08 12:20:00,38.1,28.1,30.25,ENE,60,7.0,35.0,67,0.00,,,0.00,Wunderground v.1.15,2013-03-08 19:20:00,
2013-03-08 12:26:00,37.8,27.8,30.25,ENE,71,7.0,35.0,67,0.00,,,0.00,Wunderground v.1.15,2013-03-08 19:26:00,
2013-03-08 12:32:00,37.9,27.9,30.24,ENE,69,6.0,35.0,67,0.00,,,0.00,Wunderground v.1.15,2013-03-08 19:32:00,
2013-03-08 12:38:00,38.3,27.9,30.24,ENE,73,6.0,35.0,66,0.00,,,0.00,Wunderground v.1.15,2013-03-08 19:38:00,
2013-03-08 12:44:00,38.8,28.0,30.24,ENE,60,7.0,35.0,65,0.00,,,0.00,Wunderground v.1.15,2013-03-08 19:44:00,
2013-03-08 12:50:00,39.4,27.8,30.24,East,81,6.0,6.0,63,0.00,,,0.00,Wunderground v.1.15,2013-03-08 19:50:00,
2013-03-08 12:56:00,39.6,27.6,30.23,East,86,5.0,35.0,62,0.00,,,0.00,Wunderground v.1.15,2013-03-08 19:56:00,
2013-03-08 13:02:00,40.0,27.6,30.22,East,97,5.0,6.0,61,0.00,,,0.00,Wunderground v.1.15,2013-03-08 20:02:00,
2013-03-08 13:08:00,40.3,27.9,30.22,NE,56,6.0,35.0,61,0.00,,,0.00,Wunderground v.1.15,2013-03-08 20:08:00,
2013-03-08 13:14:00,40.7,27.5,30.22,ESE,116,7.0,35.0,59,0.00,,,0.00,Wunderground v.1.15,2013-03-08 20:14:00,
2013-03-08 13:20:00,40.8,27.6,30.22,NE,54,7.0,7.0,59,0.00,,,0.00,Wunderground v.1.15,2013-03-08 20:20:00,
2013-03-08 13:26:00,41.1,27.9,30.21,East,101,7.0,35.0,59,0.00,,,0.00,Wunderground v.1.15,2013-03-08 20:26:00,
2013-03-08 13:32:00,41.5,28.2,30.20,ESE,111,7.0,35.0,59,0.00,,,0.00,Wunderground v.1.15,2013-03-08 20:32:00,
2013-03-08 13:38:00,41.3,27.6,30.19,ESE,102,7.0,35.0,58,0.00,,,0.00,Wunderground v.1.15,2013-03-08 20:38:00,
2013-03-08 13:44:00,41.0,27.8,30.19,East,99,7.0,35.0,59,0.00,,,0.00,Wunderground v.1.15,2013-03-08 20:44:00,
2013-03-08 13:50:00,41.4,27.7,30.19,ENE,72,6.0,35.0,58,0.00,,,0.00,Wunderground v.1.15,2013-03-08 20:50:00,
2013-03-08 13:56:00,41.8,28.1,30.19,SE,127,7.0,35.0,58,0.00,,,0.00,Wunderground v.1.15,2013-03-08 20:56:00,
2013-03-08 14:02:00,42.1,27.9,30.18,ESE,120,5.0,35.0,57,0.00,,,0.00,Wunderground v.1.15,2013-03-08 21:02:00,
2013-03-08 14:08:00,42.1,27.9,30.18,ENE,75,7.0,35.0,57,0.00,,,0.00,Wunderground v.1.15,2013-03-08 21:08:00,
2013-03-08 14:14:00,41.5,27.8,30.18,ENE,77,6.0,35.0,58,0.00,,,0.00,Wunderground v.1.15,2013-03-08 21:14:00,
2013-03-08 14:20:00,41.7,28.0,30.18,East,95,6.0,6.0,58,0.00,,,0.00,Wunderground v.1.15,2013-03-08 21:20:00,
2013-03-08 14:26:00,41.6,27.9,30.18,East,83,5.0,35.0,58,0.00,,,0.00,Wunderground v.1.15,2013-03-08 21:26:00,
2013-03-08 14:32:00,41.7,28.0,30.17,ESE,108,6.0,35.0,58,0.00,,,0.00,Wunderground v.1.15,2013-03-08 21:32:00,
2013-03-08 14:38:00,41.8,27.7,30.17,ESE,122,6.0,35.0,57,0.00,,,0.00,Wunderground v.1.15,2013-03-08 21:38:00,
2013-03-08 14:44:00,41.7,27.6,30.17,ENE,60,6.0,35.0,57,0.00,,,0.00,Wunderground v.1.15,2013-03-08 21:44:00,
2013-03-08 14:50:00,41.8,28.1,30.17,ESE,119,7.0,35.0,58,0.00,,,0.00,Wunderground v.1.15,2013-03-08 21:50:00,
2013-03-08 14:56:00,41.7,27.6,30.17,ESE,110,6.0,35.0,57,0.00,,,0.00,Wunderground v.1.15,2013-03-08 21:56:00,
2013-03-08 15:02:00,42.1,27.9,30.17,East,81,6.0,35.0,57,0.00,,,0.00,Wunderground v.1.15,2013-03-08 22:02:00,
2013-03-08 15:08:00,42.3,27.7,30.17,ESE,102,6.0,35.0,56,0.00,,,0.00,Wunderground v.1.15,2013-03-08 22:08:00,
2013-03-08 15:14:00,42.1,27.9,30.17,East,83,6.0,35.0,57,0.00,,,0.00,Wunderground v.1.15,2013-03-08 22:14:00,
2013-03-08 15:20:00,42.2,27.6,30.17,ENE,74,6.0,6.0,56,0.00,,,0.00,Wunderground v.1.15,2013-03-08 22:20:00,
2013-03-08 15:26:00,41.9,27.8,30.17,SE,139,7.0,35.0,57,0.00,,,0.00,Wunderground v.1.15,2013-03-08 22:26:00,
2013-03-08 15:32:00,41.9,27.8,30.16,ENE,71,7.0,35.0,57,0.00,,,0.00,Wunderground v.1.15,2013-03-08 22:32:00,
2013-03-08 15:38:00,41.5,27.8,30.16,ENE,78,7.0,35.0,58,0.00,,,0.00,Wunderground v.1.15,2013-03-08 22:38:00,
2013-03-08 15:44:00,41.6,27.9,30.16,ESE,102,6.0,35.0,58,0.00,,,0.00,Wunderground v.1.15,2013-03-08 22:44:00,
2013-03-08 15:50:00,41.8,28.1,30.16,SE,144,6.0,6.0,58,0.00,,,0.00,Wunderground v.1.15,2013-03-08 22:50:00,
2013-03-08 15:56:00,41.8,27.7,30.16,East,93,6.0,35.0,57,0.00,,,0.00,Wunderground v.1.15,2013-03-08 22:56:00,
2013-03-08 16:02:00,41.5,27.4,30.15,East,100,7.0,8.0,57,0.00,,,0.00,Wunderground v.1.15,2013-03-08 23:02:00,
2013-03-08 16:08:00,41.3,27.6,30.15,East,94,7.0,35.0,58,0.00,,,0.00,Wunderground v.1.15,2013-03-08 23:08:00,
2013-03-08 16:14:00,41.0,27.3,30.15,East,98,6.0,35.0,58,0.00,,,0.00,Wunderground v.1.15,2013-03-08 23:14:00,
2013-03-08 16:20:00,41.0,27.8,30.15,ESE,116,5.0,35.0,59,0.00,,,0.00,Wunderground v.1.15,2013-03-08 23:20:00,
2013-03-08 16:26:00,40.9,27.7,30.15,East,97,5.0,35.0,59,0.00,,,0.00,Wunderground v.1.15,2013-03-08 23:26:00,
2013-03-08 16:32:00,40.8,27.6,30.15,East,95,5.0,35.0,59,0.00,,,0.00,Wunderground v.1.15,2013-03-08 23:32:00,
2013-03-08 16:38:00,40.8,27.6,30.15,East,84,5.0,35.0,59,0.00,,,0.00,Wunderground v.1.15,2013-03-08 23:38:00,
2013-03-08 16:44:00,40.8,27.6,30.16,ESE,116,5.0,35.0,59,0.00,,,0.00,Wunderground v.1.15,2013-03-08 23:44:00,
2013-03-08 16:50:00,40.8,27.6,30.15,East,97,5.0,5.0,59,0.00,,,0.00,Wunderground v.1.15,2013-03-08 23:50:00,
2013-03-08 16:56:00,40.7,27.5,30.15,ESE,103,5.0,35.0,59,0.00,,,0.00,Wunderground v.1.15,2013-03-08 23:56:00,
2013-03-08 17:02:00,40.6,27.4,30.15,ESE,123,5.0,35.0,59,0.00,,,0.00,Wunderground v.1.15,2013-03-09 00:02:00,
2013-03-08 17:08:00,40.6,27.8,30.16,ESE,121,5.0,35.0,60,0.00,,,0.00,Wunderground v.1.15,2013-03-09 00:08:00,
2013-03-08 17:14:00,40.4,27.6,30.16,ESE,120,5.0,35.0,60,0.00,,,0.00,Wunderground v.1.15,2013-03-09 00:14:00,
2013-03-08 17:20:00,40.2,27.4,30.16,ESE,117,5.0,35.0,60,0.00,,,0.00,Wunderground v.1.15,2013-03-09 00:20:00,
2013-03-08 17:26:00,39.7,26.9,30.16,SE,137,6.0,35.0,60,0.00,,,0.00,Wunderground v.1.15,2013-03-09 00:26:00,
2013-03-08 17:32:00,39.2,26.9,30.16,SSE,147,5.0,35.0,61,0.00,,,0.00,Wunderground v.1.15,2013-03-09 00:32:00,
2013-03-08 17:38:00,38.7,26.8,30.16,SE,125,5.0,35.0,62,0.00,,,0.00,Wunderground v.1.15,2013-03-09 00:38:00,
2013-03-08 17:44:00,38.1,26.6,30.16,SE,131,6.0,35.0,63,0.00,,,0.00,Wunderground v.1.15,2013-03-09 00:44:00,
2013-03-08 17:50:00,37.3,26.2,30.16,SE,131,7.0,7.0,64,0.00,,,0.00,Wunderground v.1.15,2013-03-09 00:50:00,
2013-03-08 17:56:00,36.7,26.0,30.16,SE,129,8.0,35.0,65,0.00,,,0.00,Wunderground v.1.15,2013-03-09 00:56:00,
2013-03-08 18:02:00,36.0,26.1,30.16,SE,138,8.0,35.0,67,0.00,,,0.00,Wunderground v.1.15,2013-03-09 01:02:00,
2013-03-08 18:08:00,35.3,25.8,30.17,SE,135,8.0,35.0,68,0.00,,,0.00,Wunderground v.1.15,2013-03-09 01:08:00,
2013-03-08 18:14:00,34.9,26.1,30.17,SE,137,7.0,35.0,70,0.00,,,0.00,Wunderground v.1.15,2013-03-09 01:14:00,
2013-03-08 18:20:00,34.5,25.7,30.16,ESE,103,6.0,6.0,70,0.00,,,0.00,Wunderground v.1.15,2013-03-09 01:20:00,
2013-03-08 18:26:00,34.1,26.0,30.16,ESE,108,6.0,35.0,72,0.00,,,0.00,Wunderground v.1.15,2013-03-09 01:26:00,
2013-03-08 18:32:00,33.7,25.6,30.17,SE,129,5.0,35.0,72,0.00,,,0.00,Wunderground v.1.15,2013-03-09 01:32:00,
2013-03-08 18:38:00,33.5,26.1,30.17,SE,131,5.0,35.0,74,0.00,,,0.00,Wunderground v.1.15,2013-03-09 01:38:00,
2013-03-08 18:44:00,33.5,26.1,30.17,SE,124,6.0,35.0,74,0.00,,,0.00,Wunderground v.1.15,2013-03-09 01:44:00,
2013-03-08 18:50:00,33.4,26.3,30.16,ESE,116,5.0,35.0,75,0.00,,,0.00,Wunderground v.1.15,2013-03-09 01:50:00,
2013-03-08 18:56:00,33.4,26.3,30.16,ESE,118,4.0,35.0,75,0.00,,,0.00,Wunderground v.1.15,2013-03-09 01:56:00,
2013-03-08 19:02:00,33.3,26.2,30.16,ESE,105,4.0,35.0,75,0.00,,,0.00,Wunderground v.1.15,2013-03-09 02:02:00,
2013-03-08 19:08:00,33.2,26.5,30.17,SE,125,6.0,35.0,76,0.00,,,0.00,Wunderground v.1.15,2013-03-09 02:08:00,
2013-03-08 19:14:00,33.1,26.4,30.16,SE,128,7.0,35.0,76,0.00,,,0.00,Wunderground v.1.15,2013-03-09 02:14:00,
2013-03-08 19:20:00,33.0,26.6,30.17,ESE,117,6.0,6.0,77,0.00,,,0.00,Wunderground v.1.15,2013-03-09 02:20:00,
2013-03-08 19:26:00,32.9,26.5,30.17,East,99,4.0,35.0,77,0.00,,,0.00,Wunderground v.1.15,2013-03-09 02:26:00,
2013-03-08 19:32:00,32.8,26.4,30.18,East,99,3.0,35.0,77,0.00,,,0.00,Wunderground v.1.15,2013-03-09 02:32:00,
2013-03-08 19:38:00,32.6,26.2,30.18,East,99,1.0,35.0,77,0.00,,,0.00,Wunderground v.1.15,2013-03-09 02:38:00,
2013-03-08 19:44:00,32.5,26.4,30.18,East,101,1.0,35.0,78,0.00,,,0.00,Wunderground v.1.15,2013-03-09 02:44:00,
2013-03-08 19:50:00,32.4,26.3,30.18,East,101,1.0,1.0,78,0.00,,,0.00,Wunderground v.1.15,2013-03-09 02:50:00,
2013-03-08 19:56:00,32.2,26.1,30.18,East,101,1.0,35.0,78,0.00,,,0.00,Wunderground v.1.15,2013-03-09 02:56:00,
2013-03-08 20:02:00,32.0,25.9,30.18,East,101,1.0,35.0,78,0.00,,,0.00,Wunderground v.1.15,2013-03-09 03:02:00,
2013-03-08 20:08:00,31.8,25.7,30.19,East,101,0.0,35.0,78,0.00,,,0.00,Wunderground v.1.15,2013-03-09 03:08:00,
2013-03-08 20:14:00,31.5,25.1,30.19,East,100,0.0,35.0,77,0.00,,,0.00,Wunderground v.1.15,2013-03-09 03:14:00,
2013-03-08 20:20:00,30.6,24.6,30.18,East,101,1.0,1.0,78,0.00,,,0.00,Wunderground v.1.15,2013-03-09 03:20:00,
2013-03-08 20:26:00,30.2,24.5,30.18,East,101,1.0,35.0,79,0.00,,,0.00,Wunderground v.1.15,2013-03-09 03:26:00,
2013-03-08 20:32:00,29.8,24.1,30.17,East,101,1.0,35.0,79,0.00,,,0.00,Wunderground v.1.15,2013-03-09 03:32:00,
2013-03-08 20:38:00,29.7,24.6,30.18,East,101,0.0,35.0,81,0.00,,,0.00,Wunderground v.1.15,2013-03-09 03:38:00,
2013-03-08 20:44:00,28.8,22.8,30.18,East,101,1.0,35.0,78,0.00,,,0.00,Wunderground v.1.15,2013-03-09 03:44:00,
2013-03-08 20:50:00,28.4,23.9,30.18,ESE,102,3.0,3.0,83,0.00,,,0.00,Wunderground v.1.15,2013-03-09 03:50:00,
2013-03-08 20:56:00,28.3,23.8,30.18,ESE,102,1.0,35.0,83,0.00,,,0.00,Wunderground v.1.15,2013-03-09 03:56:00,
2013-03-08 21:02:00,28.5,24.6,30.18,ESE,102,0.0,35.0,85,0.00,,,0.00,Wunderground v.1.15,2013-03-09 04:02:00,
2013-03-08 21:08:00,28.8,24.9,30.17,ESE,102,0.0,35.0,85,0.00,,,0.00,Wunderground v.1.15,2013-03-09 04:08:00,
2013-03-08 21:14:00,29.0,25.1,30.17,ESE,102,0.0,35.0,85,0.00,,,0.00,Wunderground v.1.15,2013-03-09 04:14:00,
2013-03-08 21:20:00,28.6,23.8,30.17,ESE,102,0.0,35.0,82,0.00,,,0.00,Wunderground v.1.15,2013-03-09 04:20:00,
2013-03-08 21:26:00,28.1,23.9,30.17,ESE,102,0.0,35.0,84,0.00,,,0.00,Wunderground v.1.15,2013-03-09 04:26:00,
2013-03-08 21:32:00,27.7,23.5,30.17,ESE,102,1.0,35.0,84,0.00,,,0.00,Wunderground v.1.15,2013-03-09 04:32:00,
2013-03-08 21:38:00,27.4,23.2,30.17,SE,125,1.0,35.0,84,0.00,,,0.00,Wunderground v.1.15,2013-03-09 04:38:00,
2013-03-08 21:44:00,27.0,23.1,30.17,ESE,121,2.0,35.0,85,0.00,,,0.00,Wunderground v.1.15,2013-03-09 04:44:00,
2013-03-08 21:50:00,26.9,23.3,30.17,ESE,118,1.0,35.0,86,0.00,,,0.00,Wunderground v.1.15,2013-03-09 04:50:00,
2013-03-08 21:56:00,26.7,23.1,30.17,ESE,116,1.0,35.0,86,0.00,,,0.00,Wunderground v.1.15,2013-03-09 04:56:00,
2013-03-08 22:00:00,26.5,22.9,30.17,ESE,112,2.0,2.0,86,0.00,,,0.00,Wunderground v.1.15,2013-03-09 05:00:00,
2013-03-08 22:04:00,26.3,22.7,30.17,ESE,112,1.0,35.0,86,0.00,,,0.00,Wunderground v.1.15,2013-03-09 05:04:00,
2013-03-08 22:06:00,26.2,22.6,30.17,ESE,112,1.0,35.0,86,0.00,,,0.00,Wunderground v.1.15,2013-03-09 05:06:00,
2013-03-08 22:10:00,26.1,22.8,30.16,ESE,112,1.0,35.0,87,0.00,,,0.00,Wunderground v.1.15,2013-03-09 05:10:00,
2013-03-08 22:16:00,26.1,23.0,30.16,East,95,2.0,35.0,88,0.00,,,0.00,Wunderground v.1.15,2013-03-09 05:16:00,
2013-03-08 22:22:00,26.1,23.0,30.16,East,99,2.0,35.0,88,0.00,,,0.00,Wunderground v.1.15,2013-03-09 05:22:00,
2013-03-08 22:28:00,25.9,22.8,30.16,East,88,2.0,35.0,88,0.00,,,0.00,Wunderground v.1.15,2013-03-09 05:28:00,
2013-03-08 22:34:00,25.7,22.6,30.16,East,87,2.0,35.0,88,0.00,,,0.00,Wunderground v.1.15,2013-03-09 05:34:00,
2013-03-08 22:40:00,25.6,22.8,30.16,ESE,102,3.0,35.0,89,0.00,,,0.00,Wunderground v.1.15,2013-03-09 05:40:00,
2013-03-08 22:46:00,25.8,23.3,30.16,East,91,3.0,35.0,90,0.00,,,0.00,Wunderground v.1.15,2013-03-09 05:46:00,
2013-03-08 22:52:00,25.9,23.4,30.17,East,82,2.0,35.0,90,0.00,,,0.00,Wunderground v.1.15,2013-03-09 05:52:00,
2013-03-08 22:58:00,25.8,23.3,30.17,East,82,1.0,35.0,90,0.00,,,0.00,Wunderground v.1.15,2013-03-09 05:58:00,
2013-03-08 23:04:00,26.0,23.5,30.16,East,80,2.0,35.0,90,0.00,,,0.00,Wunderground v.1.15,2013-03-09 06:04:00,
2013-03-08 23:10:00,26.0,23.5,30.17,East,80,1.0,35.0,90,0.00,,,0.00,Wunderground v.1.15,2013-03-09 06:10:00,
2013-03-08 23:16:00,26.0,23.5,30.17,East,80,1.0,35.0,90,0.00,,,0.00,Wunderground v.1.15,2013-03-09 06:16:00,
2013-03-08 23:22:00,26.0,23.5,30.17,East,80,1.0,35.0,90,0.00,,,0.00,Wunderground v.1.15,2013-03-09 06:22:00,
2013-03-08 23:28:00,26.2,23.7,30.16,East,80,1.0,35.0,90,0.00,,,0.00,Wunderground v.1.15,2013-03-09 06:28:00,
2013-03-08 23:34:00,26.3,24.0,30.16,East,80,1.0,35.0,91,0.00,,,0.00,Wunderground v.1.15,2013-03-09 06:34:00,
2013-03-08 23:40:00,26.5,24.2,30.15,East,80,0.0,35.0,91,0.00,,,0.00,Wunderground v.1.15,2013-03-09 06:40:00,
2013-03-08 23:46:00,26.5,24.2,30.15,East,80,0.0,35.0,91,0.00,,,0.00,Wunderground v.1.15,2013-03-09 06:46:00,
2013-03-08 23:52:00,26.6,24.3,30.14,East,80,0.0,35.0,91,0.00,,,0.00,Wunderground v.1.15,2013-03-09 06:52:00,
2013-03-08 23:58:00,26.6,24.3,30.14,East,80,0.0,35.0,91,0.00,,,0.00,Wunderground v.1.15,2013-03-09 06:58:00,